createdAt,value
2022-11-10T00:03:40.361Z,19.25
2022-11-10T00:06:10.804Z,19.58
2022-11-10T00:08:37.595Z,20.80
2022-11-10T00:11:08.302Z,22.27
2022-11-10T00:13:56.659Z,20.42
2022-11-10T00:16:42.115Z,21.98
2022-11-10T00:19:09.089Z,19.98
2022-11-10T00:21:37.286Z,20.92
2022-11-10T00:24:04.710Z,20.55
2022-11-10T00:26:31.947Z,20.25
2022-11-10T00:28:58.761Z,21.40
2022-11-10T00:31:25.537Z,21.38
2022-11-10T00:33:52.252Z,21.30
2022-11-10T00:36:19.040Z,20.23
2022-11-10T00:38:45.786Z,21.60
2022-11-10T00:41:13.183Z,18.58
2022-11-10T00:43:39.964Z,20.30
2022-11-10T00:46:06.702Z,19.95
2022-11-10T00:48:33.517Z,19.77
2022-11-10T00:51:00.270Z,20.15
2022-11-10T00:53:27.006Z,19.33
2022-11-10T00:55:53.829Z,19.02
2022-11-10T00:58:20.713Z,19.52
2022-11-10T01:00:47.621Z,18.30
2022-11-10T01:03:16.058Z,18.77
2022-11-10T01:05:43.443Z,19.02
2022-11-10T01:08:10.835Z,18.70
2022-11-10T01:10:37.644Z,18.70
2022-11-10T01:13:04.372Z,19.55
2022-11-10T01:15:31.311Z,19.40
2022-11-10T01:17:58.005Z,19.38
2022-11-10T01:20:25.862Z,20.00
2022-11-10T01:22:52.727Z,18.98
2022-11-10T01:25:19.573Z,18.30
2022-11-10T01:27:46.621Z,20.42
2022-11-10T01:30:13.444Z,19.20
2022-11-10T01:32:40.292Z,19.42
2022-11-10T01:35:08.531Z,19.25
2022-11-10T01:37:35.513Z,19.25
2022-11-10T01:40:02.689Z,18.45
2022-11-10T01:42:44.533Z,18.92
2022-11-10T01:45:23.565Z,18.40
2022-11-10T01:47:52.580Z,18.92
2022-11-10T01:50:22.123Z,18.10
2022-11-10T01:52:52.422Z,17.83
2022-11-10T01:55:19.276Z,17.75
2022-11-10T01:57:46.296Z,17.75
2022-11-10T02:00:13.410Z,17.48
2022-11-10T02:02:46.662Z,17.52
2022-11-10T02:05:13.679Z,17.98
2022-11-10T02:07:40.802Z,19.50
2022-11-10T02:10:16.263Z,16.70
2022-11-10T02:12:44.131Z,17.85
2022-11-10T02:15:14.503Z,18.75
2022-11-10T02:17:42.445Z,18.17
2022-11-10T02:20:12.224Z,18.13
2022-11-10T02:22:39.100Z,19.13
2022-11-10T02:25:06.672Z,19.63
2022-11-10T02:27:33.402Z,18.88
2022-11-10T02:30:01.767Z,19.52
2022-11-10T02:32:28.888Z,18.88
2022-11-10T02:34:55.741Z,19.10
2022-11-10T02:37:22.533Z,18.13
2022-11-10T02:39:49.265Z,18.45
2022-11-10T02:42:16.132Z,17.85
2022-11-10T02:44:43.175Z,17.77
2022-11-10T02:47:10.194Z,16.67
2022-11-10T02:49:36.914Z,17.02
2022-11-10T02:52:03.889Z,17.60
2022-11-10T02:54:30.652Z,18.63
2022-11-10T02:56:57.335Z,18.08
2022-11-10T02:59:24.076Z,17.42
2022-11-10T03:01:50.831Z,17.67
2022-11-10T03:04:17.553Z,16.35
2022-11-10T03:06:44.408Z,16.38
2022-11-10T03:09:11.242Z,16.58
2022-11-10T03:11:37.974Z,15.20
2022-11-10T03:14:04.731Z,15.27
2022-11-10T03:16:31.514Z,15.55
2022-11-10T03:18:58.225Z,15.73
2022-11-10T03:21:24.934Z,15.82
2022-11-10T03:23:51.640Z,14.10
2022-11-10T03:26:18.372Z,15.18
2022-11-10T03:28:45.080Z,15.15
2022-11-10T03:31:11.813Z,14.45
2022-11-10T03:33:38.535Z,15.45
2022-11-10T03:36:05.522Z,14.18
2022-11-10T03:38:32.214Z,13.63
2022-11-10T03:43:45.621Z,14.90
2022-11-10T03:46:12.602Z,14.82
2022-11-10T03:48:39.311Z,14.88
2022-11-10T03:51:06.193Z,14.80
2022-11-10T03:53:33.031Z,14.77
2022-11-10T03:56:04.541Z,16.05
2022-11-10T03:58:31.443Z,15.88
2022-11-10T04:00:58.236Z,15.50
2022-11-10T04:03:25.867Z,15.40
2022-11-10T04:06:11.461Z,15.35
2022-11-10T04:08:56.814Z,15.10
2022-11-10T04:11:41.915Z,15.18
2022-11-10T04:14:27.782Z,15.95
2022-11-10T04:16:55.052Z,16.33
2022-11-10T04:19:21.843Z,15.57
2022-11-10T04:21:48.719Z,16.60
2022-11-10T04:24:16.290Z,15.73
2022-11-10T04:26:44.100Z,15.40
2022-11-10T04:29:12.349Z,16.35
2022-11-10T04:31:41.090Z,16.02
2022-11-10T04:34:09.867Z,16.13
2022-11-10T04:36:39.053Z,15.98
2022-11-10T04:39:06.774Z,16.03
2022-11-10T04:41:33.960Z,16.25
2022-11-10T04:44:01.473Z,17.42
2022-11-10T04:46:32.151Z,16.85
2022-11-10T04:48:59.823Z,16.52
2022-11-10T04:51:31.497Z,16.02
2022-11-10T04:53:58.882Z,15.90
2022-11-10T04:56:26.644Z,15.10
2022-11-10T04:58:54.492Z,15.48
2022-11-10T05:01:27.577Z,14.82
2022-11-10T05:03:55.421Z,15.20
2022-11-10T05:06:22.873Z,14.85
2022-11-10T05:08:50.108Z,15.98
2022-11-10T05:11:16.960Z,14.88
2022-11-10T05:13:45.116Z,15.43
2022-11-10T05:16:12.447Z,15.25
2022-11-10T05:18:39.158Z,14.57
2022-11-10T05:21:06.084Z,15.20
2022-11-10T05:23:38.778Z,15.82
2022-11-10T05:26:16.485Z,14.93
2022-11-10T05:28:45.053Z,13.95
2022-11-10T05:31:12.644Z,13.88
2022-11-10T05:33:39.595Z,13.77
2022-11-10T05:36:07.852Z,14.73
2022-11-10T05:38:40.316Z,14.30
2022-11-10T05:41:09.793Z,14.02
2022-11-10T05:43:36.494Z,14.13
2022-11-10T05:46:03.337Z,14.18
2022-11-10T05:48:30.014Z,14.15
2022-11-10T05:50:56.692Z,13.38
2022-11-10T05:53:23.873Z,13.68
2022-11-10T05:55:50.837Z,14.30
2022-11-10T05:58:17.639Z,13.45
2022-11-10T06:00:44.327Z,15.25
2022-11-10T06:03:17.049Z,13.07
2022-11-10T06:05:44.461Z,12.48
2022-11-10T06:08:11.557Z,13.75
2022-11-10T06:10:39.196Z,11.65
2022-11-10T06:13:06.636Z,11.43
2022-11-10T06:15:33.674Z,11.45
2022-11-10T06:18:00.625Z,10.85
2022-11-10T06:20:27.432Z,12.18
2022-11-10T06:23:08.083Z,11.63
2022-11-10T06:25:36.570Z,12.02
2022-11-10T06:28:04.447Z,10.70
2022-11-10T06:30:33.736Z,10.57
2022-11-10T06:33:00.567Z,10.65
2022-11-10T06:35:27.775Z,10.77
2022-11-10T06:38:06.101Z,10.18
2022-11-10T06:40:33.845Z,9.88
2022-11-10T06:43:01.604Z,9.65
2022-11-10T06:45:28.970Z,9.50
2022-11-10T06:48:04.801Z,8.32
2022-11-10T06:50:32.222Z,8.88
2022-11-10T06:53:00.384Z,9.45
2022-11-10T06:55:27.298Z,9.63
2022-11-10T06:57:54.493Z,8.85
2022-11-10T07:00:22.193Z,8.65
2022-11-10T07:02:48.955Z,9.43
2022-11-10T07:05:15.861Z,8.85
2022-11-10T07:07:42.646Z,8.75
2022-11-10T07:10:09.687Z,8.20
2022-11-10T07:12:36.595Z,8.57
2022-11-10T07:15:03.943Z,8.63
2022-11-10T07:17:30.673Z,9.18
2022-11-10T07:19:57.521Z,9.75
2022-11-10T07:22:25.062Z,9.25
2022-11-10T07:24:51.805Z,9.57
2022-11-10T07:27:18.648Z,8.38
2022-11-10T07:29:45.449Z,9.02
2022-11-10T07:32:12.166Z,8.95
2022-11-10T07:34:38.851Z,8.52
2022-11-10T07:37:05.861Z,9.52
2022-11-10T07:39:32.608Z,9.18
2022-11-10T07:41:59.298Z,9.35
2022-11-10T07:44:27.842Z,9.95
2022-11-10T07:46:54.596Z,9.05
2022-11-10T07:49:21.382Z,8.55
2022-11-10T07:51:48.053Z,8.82
2022-11-10T07:54:14.752Z,8.95
2022-11-10T07:56:42.522Z,8.57
2022-11-10T07:59:09.392Z,9.18
2022-11-10T08:01:36.084Z,9.68
2022-11-10T08:04:02.841Z,9.05
2022-11-10T08:06:34.910Z,9.50
2022-11-10T08:09:02.832Z,8.90
2022-11-10T08:11:29.534Z,9.45
2022-11-10T08:13:56.196Z,9.60
2022-11-10T08:16:22.988Z,9.13
2022-11-10T08:18:49.720Z,9.45
2022-11-10T08:21:16.381Z,9.25
2022-11-10T08:23:43.167Z,9.05
2022-11-10T08:26:09.853Z,9.68
2022-11-10T08:28:36.623Z,9.52
2022-11-10T08:31:05.684Z,9.55
2022-11-10T08:33:33.050Z,9.80
2022-11-10T08:36:01.320Z,9.50
2022-11-10T08:38:28.051Z,10.60
2022-11-10T08:40:57.588Z,10.02
2022-11-10T08:43:25.131Z,10.50
2022-11-10T08:45:58.858Z,9.80
2022-11-10T08:48:25.711Z,9.73
2022-11-10T08:50:52.518Z,9.15
2022-11-10T08:53:22.859Z,8.52
2022-11-10T08:55:51.132Z,9.98
2022-11-10T08:58:20.096Z,9.70
2022-11-10T09:00:47.243Z,9.68
2022-11-10T09:03:20.029Z,9.48
2022-11-10T09:05:47.815Z,9.68
2022-11-10T09:08:15.583Z,9.70
2022-11-10T09:10:47.659Z,9.30
2022-11-10T09:13:16.053Z,9.38
2022-11-10T09:15:44.044Z,9.10
2022-11-10T09:18:13.325Z,10.13
2022-11-10T09:20:40.499Z,9.80
2022-11-10T09:23:09.798Z,10.13
2022-11-10T09:25:37.446Z,9.32
2022-11-10T09:28:04.714Z,10.80
2022-11-10T09:30:32.381Z,10.63
2022-11-10T09:33:00.546Z,10.95
2022-11-10T09:35:27.746Z,12.00
2022-11-10T09:37:54.525Z,10.57
2022-11-10T09:40:39.594Z,10.77
2022-11-10T09:43:14.611Z,10.73
2022-11-10T09:45:47.122Z,10.13
2022-11-10T09:48:24.670Z,10.75
2022-11-10T09:50:57.274Z,10.63
2022-11-10T09:53:47.874Z,11.60
2022-11-10T09:56:19.718Z,11.40
2022-11-10T09:58:46.926Z,10.63
2022-11-10T10:01:26.153Z,11.35
2022-11-10T10:04:16.752Z,10.27
2022-11-10T10:07:10.220Z,10.80
2022-11-10T10:10:01.235Z,10.48
2022-11-10T10:12:58.791Z,11.02
2022-11-10T10:16:02.576Z,11.40
2022-11-10T10:19:15.228Z,12.23
2022-11-10T10:21:50.461Z,12.50
2022-11-10T10:24:22.055Z,12.32
2022-11-10T10:26:55.424Z,12.15
2022-11-10T10:29:49.460Z,12.60
2022-11-10T10:32:17.944Z,14.00
2022-11-10T10:34:46.508Z,13.40
2022-11-10T10:37:22.650Z,13.30
2022-11-10T10:39:52.287Z,13.07
2022-11-10T10:42:31.447Z,14.20
2022-11-10T10:45:27.733Z,14.83
2022-11-10T10:47:57.179Z,15.18
2022-11-10T10:50:28.772Z,15.93
2022-11-10T10:53:17.811Z,15.73
2022-11-10T10:58:26.520Z,15.75
2022-11-10T11:01:01.620Z,14.88
2022-11-10T11:03:52.122Z,15.27
2022-11-10T11:06:33.443Z,14.68
2022-11-10T11:09:15.993Z,14.20
2022-11-10T11:11:45.489Z,13.82
2022-11-10T11:14:27.376Z,14.90
2022-11-10T11:16:59.641Z,15.20
2022-11-10T11:19:37.903Z,15.00
2022-11-10T11:22:26.448Z,14.95
2022-11-10T11:25:05.267Z,15.95
2022-11-10T11:27:32.013Z,14.95
2022-11-10T11:30:06.353Z,16.42
2022-11-10T11:32:45.346Z,15.77
2022-11-10T11:35:31.889Z,14.53
2022-11-10T11:38:16.014Z,15.15
2022-11-10T11:40:47.701Z,14.20
2022-11-10T11:43:45.453Z,15.15
2022-11-10T11:46:19.094Z,15.88
2022-11-10T11:49:21.340Z,16.63
2022-11-10T11:51:53.898Z,17.05
2022-11-10T11:54:29.845Z,18.05
2022-11-10T11:57:16.075Z,19.00
2022-11-10T11:59:45.510Z,17.90
2022-11-10T12:02:24.175Z,19.67
2022-11-10T12:05:20.322Z,19.20
2022-11-10T12:08:11.621Z,17.85
2022-11-10T12:11:32.450Z,19.77
2022-11-10T12:14:25.666Z,19.48
2022-11-10T12:17:08.889Z,18.42
2022-11-10T12:20:11.720Z,17.30
2022-11-10T12:23:10.924Z,18.00
2022-11-10T12:26:06.921Z,16.30
2022-11-10T12:28:39.824Z,15.98
2022-11-10T12:31:15.548Z,15.57
2022-11-10T12:33:50.052Z,14.85
2022-11-10T12:36:20.406Z,14.77
2022-11-10T12:39:11.885Z,14.23
2022-11-10T12:41:57.580Z,13.48
2022-11-10T12:44:32.228Z,13.50
2022-11-10T12:47:05.346Z,13.25
2022-11-10T12:49:47.420Z,13.45
2022-11-10T12:52:24.547Z,10.88
2022-11-10T12:54:51.496Z,11.63
2022-11-10T12:57:22.599Z,11.93
2022-11-10T13:00:05.445Z,10.77
2022-11-10T13:02:40.583Z,11.57
2022-11-10T13:05:24.741Z,10.63
2022-11-10T13:08:06.464Z,9.80
2022-11-10T13:10:33.321Z,10.93
2022-11-10T13:13:05.763Z,10.15
2022-11-10T13:15:35.554Z,9.32
2022-11-10T13:18:02.830Z,10.20
2022-11-10T13:20:50.214Z,10.25
2022-11-10T13:23:29.761Z,8.70
2022-11-10T13:26:11.365Z,7.90
2022-11-10T13:28:49.171Z,8.35
2022-11-10T13:31:28.038Z,7.90
2022-11-10T13:34:26.992Z,8.10
2022-11-10T13:36:53.765Z,7.60
2022-11-10T13:39:20.701Z,7.68
2022-11-10T13:41:54.391Z,8.27
2022-11-10T13:44:36.358Z,8.05
2022-11-10T13:47:35.151Z,8.50
2022-11-10T13:50:08.703Z,9.10
2022-11-10T13:53:00.131Z,8.75
2022-11-10T13:55:45.247Z,8.88
2022-11-10T13:58:23.312Z,8.82
2022-11-10T14:01:11.321Z,8.13
2022-11-10T14:03:47.901Z,8.50
2022-11-10T14:06:20.593Z,9.15
2022-11-10T14:09:03.148Z,9.80
2022-11-10T14:11:53.447Z,9.40
2022-11-10T14:14:40.823Z,9.02
2022-11-10T14:17:18.414Z,9.15
2022-11-10T14:19:46.177Z,9.30
2022-11-10T14:22:28.089Z,8.85
2022-11-10T14:25:04.487Z,8.52
2022-11-10T14:27:34.528Z,7.88
2022-11-10T14:30:21.893Z,8.13
2022-11-10T14:33:09.273Z,7.82
2022-11-10T14:35:48.962Z,8.70
2022-11-10T14:38:21.231Z,7.65
2022-11-10T14:40:49.313Z,8.32
2022-11-10T14:43:28.166Z,8.00
2022-11-10T14:45:55.037Z,7.97
2022-11-10T14:48:26.640Z,8.10
2022-11-10T14:50:54.045Z,8.38
2022-11-10T14:53:23.451Z,8.90
2022-11-10T14:55:54.708Z,8.32
2022-11-10T14:58:22.312Z,8.18
2022-11-10T15:00:49.756Z,9.00
2022-11-10T15:03:31.440Z,8.10
2022-11-10T15:05:58.328Z,8.82
2022-11-10T15:08:26.696Z,8.95
2022-11-10T15:10:53.808Z,10.07
2022-11-10T15:13:36.126Z,8.77
2022-11-10T15:16:26.254Z,9.48
2022-11-10T15:18:55.029Z,9.55
2022-11-10T15:21:34.300Z,9.38
2022-11-10T15:24:05.694Z,9.98
2022-11-10T15:26:38.495Z,9.27
2022-11-10T15:29:05.483Z,11.23
2022-11-10T15:31:34.070Z,10.68
2022-11-10T15:34:04.632Z,9.93
2022-11-10T15:36:32.663Z,17.90
2022-11-10T15:39:05.537Z,10.60
2022-11-10T15:41:36.352Z,11.77
2022-11-10T15:44:22.251Z,10.15
2022-11-10T15:46:53.836Z,12.68
2022-11-10T15:49:25.589Z,9.77
2022-11-10T15:51:56.987Z,9.90
2022-11-10T15:54:27.113Z,9.20
2022-11-10T15:56:53.854Z,8.20
2022-11-10T15:59:20.657Z,8.68
2022-11-10T16:01:47.506Z,9.40
2022-11-10T16:04:14.242Z,10.32
2022-11-10T16:06:41.156Z,10.02
2022-11-10T16:09:11.202Z,9.43
2022-11-10T16:14:05.902Z,10.15
2022-11-10T16:16:32.651Z,9.60
2022-11-10T16:18:59.434Z,9.48
2022-11-10T16:21:26.517Z,9.45
2022-11-10T16:23:53.473Z,14.90
2022-11-10T16:26:23.901Z,13.32
2022-11-10T16:28:50.797Z,12.93
2022-11-10T16:31:19.522Z,11.98
2022-11-10T16:33:47.104Z,13.57
2022-11-10T16:36:28.036Z,13.60
2022-11-10T16:38:55.631Z,13.35
2022-11-10T16:41:23.062Z,9.68
2022-11-10T16:43:49.949Z,10.18
2022-11-10T16:46:22.984Z,10.02
2022-11-10T16:48:52.869Z,9.93
2022-11-10T16:51:28.832Z,9.85
2022-11-10T16:53:56.035Z,9.73
2022-11-10T16:56:23.269Z,26.42
2022-11-10T16:58:51.117Z,42.30
2022-11-10T17:01:22.596Z,31.65
2022-11-10T17:03:53.461Z,15.32
2022-11-10T17:06:22.041Z,11.60
2022-11-10T17:08:52.417Z,11.18
2022-11-10T17:11:19.498Z,11.88
2022-11-10T17:13:46.381Z,11.63
2022-11-10T17:16:29.872Z,11.68
2022-11-10T17:18:59.135Z,11.68
2022-11-10T17:21:32.493Z,13.25
2022-11-10T17:24:00.958Z,12.60
2022-11-10T17:26:29.214Z,12.15
2022-11-10T17:28:57.115Z,12.80
2022-11-10T17:31:24.413Z,13.45
2022-11-10T17:33:51.537Z,12.48
2022-11-10T17:36:21.701Z,12.60
2022-11-10T17:38:49.162Z,18.98
2022-11-10T17:41:23.785Z,20.40
2022-11-10T17:43:50.967Z,16.10
2022-11-10T17:46:17.807Z,14.93
2022-11-10T17:48:45.694Z,14.82
2022-11-10T17:51:21.602Z,13.82
2022-11-10T17:53:50.822Z,14.05
2022-11-10T17:56:18.266Z,15.53
2022-11-10T17:58:45.362Z,14.75
2022-11-10T18:01:16.695Z,13.00
2022-11-10T18:03:46.744Z,13.95
2022-11-10T18:08:42.891Z,13.18
2022-11-10T18:11:12.864Z,15.32
2022-11-10T18:13:42.217Z,14.07
2022-11-10T18:16:12.070Z,15.60
2022-11-10T18:18:39.615Z,14.82
2022-11-10T18:21:09.211Z,14.52
2022-11-10T18:23:36.522Z,14.77
2022-11-10T18:26:14.062Z,15.25
2022-11-10T18:28:42.309Z,14.68
2022-11-10T18:31:13.231Z,15.18
2022-11-10T18:33:41.149Z,15.73
2022-11-10T18:36:09.350Z,15.30
2022-11-10T18:38:36.544Z,15.00
2022-11-10T18:41:28.193Z,14.68
2022-11-10T18:43:55.782Z,15.25
2022-11-10T18:46:23.236Z,15.63
2022-11-10T18:48:50.868Z,15.68
2022-11-10T18:51:18.472Z,14.50
2022-11-10T18:53:45.657Z,15.07
2022-11-10T18:56:14.979Z,14.82
2022-11-10T18:58:43.264Z,15.52
2022-11-10T19:01:12.117Z,19.85
2022-11-10T19:03:39.717Z,21.95
2022-11-10T19:06:07.818Z,22.40
2022-11-10T19:08:35.261Z,22.90
2022-11-10T19:11:07.527Z,22.17
2022-11-10T19:13:35.553Z,21.75
2022-11-10T19:16:08.562Z,23.58
2022-11-10T19:18:39.027Z,24.38
2022-11-10T19:21:14.564Z,25.63
2022-11-10T19:23:42.884Z,22.13
2022-11-10T19:26:21.885Z,22.17
2022-11-10T19:28:50.407Z,22.10
2022-11-10T19:31:23.100Z,21.13
2022-11-10T19:33:54.322Z,22.13
2022-11-10T19:36:24.183Z,22.58
2022-11-10T19:38:53.662Z,21.45
2022-11-10T19:41:24.044Z,22.10
2022-11-10T19:43:50.980Z,19.70
2022-11-10T19:46:24.682Z,19.08
2022-11-10T19:48:53.561Z,18.48
2022-11-10T19:51:22.872Z,18.27
2022-11-10T19:53:58.181Z,18.27
2022-11-10T19:56:31.469Z,17.95
2022-11-10T19:58:59.740Z,18.42
2022-11-10T20:01:27.879Z,17.75
2022-11-10T20:03:55.437Z,19.15
2022-11-10T20:06:24.483Z,18.88
2022-11-10T20:08:51.933Z,16.90
2022-11-10T20:11:26.061Z,16.45
2022-11-10T20:13:56.557Z,14.43
2022-11-10T20:16:24.181Z,15.25
2022-11-10T20:18:52.331Z,14.48
2022-11-10T20:21:23.903Z,12.50
2022-11-10T20:23:55.710Z,13.88
2022-11-10T20:26:24.781Z,12.30
2022-11-10T20:28:53.999Z,13.93
2022-11-10T20:31:24.773Z,12.73
2022-11-10T20:33:54.479Z,12.35
2022-11-10T20:36:31.762Z,13.75
2022-11-10T20:39:00.779Z,13.02
2022-11-10T20:41:30.007Z,12.65
2022-11-10T20:43:57.432Z,13.00
2022-11-10T20:46:52.773Z,13.68
2022-11-10T20:49:12.221Z,12.50
2022-11-10T20:51:41.049Z,13.85
2022-11-10T20:54:08.992Z,13.35
2022-11-10T20:56:36.037Z,13.40
2022-11-10T20:59:02.953Z,12.70
2022-11-10T21:01:31.009Z,11.43
2022-11-10T21:03:58.621Z,12.18
2022-11-10T21:06:25.765Z,12.10
2022-11-10T21:08:54.152Z,13.30
2022-11-10T21:11:40.160Z,14.15
2022-11-10T21:14:07.312Z,13.13
2022-11-10T21:16:34.390Z,12.60
2022-11-10T21:19:01.784Z,14.27
2022-11-10T21:21:34.691Z,14.77
2022-11-10T21:24:04.131Z,15.90
2022-11-10T21:26:32.774Z,16.17
2022-11-10T21:28:59.777Z,14.25
2022-11-10T21:31:26.651Z,14.60
2022-11-10T21:33:59.436Z,14.40
2022-11-10T21:36:29.481Z,14.05
2022-11-10T21:38:57.856Z,16.17
2022-11-10T21:41:25.401Z,15.75
2022-11-10T21:43:52.217Z,15.63
2022-11-10T21:46:19.413Z,14.75
2022-11-10T21:48:46.152Z,15.80
2022-11-10T21:51:14.499Z,13.55
2022-11-10T21:53:42.034Z,15.13
2022-11-10T21:56:10.382Z,15.73
2022-11-10T21:58:37.894Z,15.95
2022-11-10T22:01:06.238Z,15.73
2022-11-10T22:03:34.586Z,16.85
2022-11-10T22:06:10.620Z,15.40
2022-11-10T22:08:38.629Z,15.75
2022-11-10T22:11:24.812Z,14.27
2022-11-10T22:14:10.462Z,14.32
2022-11-10T22:17:06.670Z,14.38
2022-11-10T22:19:35.255Z,15.73
2022-11-10T22:22:03.931Z,14.45
2022-11-10T22:24:30.840Z,14.10
2022-11-10T22:26:59.880Z,14.93
2022-11-10T22:29:31.837Z,16.52
2022-11-10T22:32:02.629Z,16.15
2022-11-10T22:34:29.836Z,14.85
2022-11-10T22:36:57.228Z,16.45
2022-11-10T22:39:43.931Z,15.70
2022-11-10T22:42:31.942Z,15.57
2022-11-10T22:44:58.817Z,14.45
2022-11-10T22:47:25.623Z,14.10
2022-11-10T22:49:52.320Z,14.15
2022-11-10T22:52:19.059Z,15.00
2022-11-10T22:54:45.800Z,13.77
2022-11-10T22:57:12.571Z,15.20
2022-11-10T22:59:39.257Z,14.73
2022-11-10T23:02:05.959Z,14.95
2022-11-10T23:04:32.738Z,13.07
2022-11-10T23:06:59.499Z,13.15
2022-11-10T23:09:26.260Z,11.52
2022-11-10T23:11:52.959Z,11.18
2022-11-10T23:14:19.651Z,11.60
2022-11-10T23:16:46.418Z,10.32
2022-11-10T23:19:13.188Z,11.98
2022-11-10T23:21:40.005Z,10.88
2022-11-10T23:24:07.098Z,10.98
2022-11-10T23:26:34.989Z,12.10
2022-11-10T23:29:01.783Z,11.18
2022-11-10T23:31:28.812Z,11.82
2022-11-10T23:33:56.771Z,10.88
2022-11-10T23:36:25.448Z,11.38
2022-11-10T23:38:52.431Z,11.18
2022-11-10T23:41:21.182Z,10.88
2022-11-10T23:43:47.980Z,11.68
2022-11-10T23:46:15.320Z,11.30
2022-11-10T23:48:42.622Z,11.00
2022-11-10T23:51:11.843Z,9.98
2022-11-10T23:53:38.662Z,10.63
2022-11-10T23:56:09.005Z,9.90
2022-11-10T23:58:35.840Z,10.68
